sensor_id;sensor_type;location;lat;lon;timestamp;pressure;altitude;pressure_sealevel;temperature;humidity
76285;BME280;65096;50.998;7.098;2023-02-20T00:00:18;102071.78;;;5.78;60.80
76285;BME280;65096;50.998;7.098;2023-02-20T00:02:46;102073.44;;;5.76;60.78
76285;BME280;65096;50.998;7.098;2023-02-20T00:05:15;102069.75;;;5.71;61.04
76285;BME280;65096;50.998;7.098;2023-02-20T00:07:42;102079.84;;;5.68;61.09
76285;BME280;65096;50.998;7.098;2023-02-20T00:10:09;102070.34;;;5.66;60.96
76285;BME280;65096;50.998;7.098;2023-02-20T00:12:37;102071.97;;;5.64;60.96
76285;BME280;65096;50.998;7.098;2023-02-20T00:15:04;102069.25;;;5.61;61.10
76285;BME280;65096;50.998;7.098;2023-02-20T00:17:31;102058.84;;;5.58;61.34
76285;BME280;65096;50.998;7.098;2023-02-20T00:19:58;102057.94;;;5.56;61.31
76285;BME280;65096;50.998;7.098;2023-02-20T00:22:26;102035.13;;;5.43;61.25
76285;BME280;65096;50.998;7.098;2023-02-20T00:24:53;102053.38;;;5.50;61.59
76285;BME280;65096;50.998;7.098;2023-02-20T00:27:20;102054.97;;;5.48;61.31
76285;BME280;65096;50.998;7.098;2023-02-20T00:29:46;102053.09;;;5.44;61.61
76285;BME280;65096;50.998;7.098;2023-02-20T00:32:15;102052.13;;;5.42;61.38
76285;BME280;65096;50.998;7.098;2023-02-20T00:34:42;102042.50;;;5.37;61.42
76285;BME280;65096;50.998;7.098;2023-02-20T00:37:08;102046.75;;;5.36;61.34
76285;BME280;65096;50.998;7.098;2023-02-20T00:39:36;101994.03;;;5.05;61.17
76285;BME280;65096;50.998;7.098;2023-02-20T00:42:03;102041.16;;;5.27;61.45
76285;BME280;65096;50.998;7.098;2023-02-20T00:44:30;102048.81;;;5.27;61.59
76285;BME280;65096;50.998;7.098;2023-02-20T00:46:56;102046.06;;;5.23;61.29
76285;BME280;65096;50.998;7.098;2023-02-20T00:49:23;102041.81;;;5.23;61.47
76285;BME280;65096;50.998;7.098;2023-02-20T00:51:50;102044.78;;;5.15;61.92
76285;BME280;65096;50.998;7.098;2023-02-20T00:54:16;102044.00;;;5.16;61.97
76285;BME280;65096;50.998;7.098;2023-02-20T00:56:45;102036.28;;;5.14;61.67
76285;BME280;65096;50.998;7.098;2023-02-20T00:59:11;102037.88;;;5.12;61.70
76285;BME280;65096;50.998;7.098;2023-02-20T01:01:38;102037.78;;;5.11;61.52
76285;BME280;65096;50.998;7.098;2023-02-20T01:04:05;102036.91;;;5.10;61.67
76285;BME280;65096;50.998;7.098;2023-02-20T01:06:31;102030.84;;;5.08;62.20
76285;BME280;65096;50.998;7.098;2023-02-20T01:08:58;102032.47;;;5.06;61.71
76285;BME280;65096;50.998;7.098;2023-02-20T01:11:25;102022.09;;;5.03;61.91
76285;BME280;65096;50.998;7.098;2023-02-20T01:13:53;102018.56;;;5.01;62.32
76285;BME280;65096;50.998;7.098;2023-02-20T01:16:20;102009.94;;;4.99;61.99
76285;BME280;65096;50.998;7.098;2023-02-20T01:18:48;102003.94;;;4.99;61.89
76285;BME280;65096;50.998;7.098;2023-02-20T01:21:16;102003.00;;;4.97;62.24
76285;BME280;65096;50.998;7.098;2023-02-20T01:23:43;102008.06;;;4.95;62.21
76285;BME280;65096;50.998;7.098;2023-02-20T01:26:09;102008.75;;;4.92;62.73
76285;BME280;65096;50.998;7.098;2023-02-20T01:28:36;102002.75;;;4.92;62.73
76285;BME280;65096;50.998;7.098;2023-02-20T01:33:41;102008.38;;;4.85;62.77
76285;BME280;65096;50.998;7.098;2023-02-20T01:36:08;102003.28;;;4.85;62.87
76285;BME280;65096;50.998;7.098;2023-02-20T01:38:35;101990.44;;;4.83;62.58
76285;BME280;65096;50.998;7.098;2023-02-20T01:41:01;101993.06;;;4.85;62.48
76285;BME280;65096;50.998;7.098;2023-02-20T01:43:28;101988.28;;;4.75;62.93
76285;BME280;65096;50.998;7.098;2023-02-20T01:49:01;101982.91;;;4.86;63.58
76285;BME280;65096;50.998;7.098;2023-02-20T01:51:30;101976.69;;;4.81;63.00
76285;BME280;65096;50.998;7.098;2023-02-20T01:54:01;101973.97;;;4.78;63.75
76285;BME280;65096;50.998;7.098;2023-02-20T01:56:29;101980.25;;;4.67;64.74
76285;BME280;65096;50.998;7.098;2023-02-20T01:58:56;101973.72;;;4.56;65.58
76285;BME280;65096;50.998;7.098;2023-02-20T02:01:22;101959.53;;;4.45;67.38
76285;BME280;65096;50.998;7.098;2023-02-20T02:03:54;101957.53;;;4.40;66.70
76285;BME280;65096;50.998;7.098;2023-02-20T02:06:23;101960.75;;;4.36;68.22
76285;BME280;65096;50.998;7.098;2023-02-20T02:08:51;101965.13;;;4.38;66.61
76285;BME280;65096;50.998;7.098;2023-02-20T02:11:20;101960.16;;;4.41;65.94
76285;BME280;65096;50.998;7.098;2023-02-20T02:13:48;101969.25;;;4.52;65.25
76285;BME280;65096;50.998;7.098;2023-02-20T02:16:23;101958.31;;;4.55;65.22
76285;BME280;65096;50.998;7.098;2023-02-20T02:19:00;101969.22;;;4.68;64.89
76285;BME280;65096;50.998;7.098;2023-02-20T02:28:10;101961.78;;;4.73;66.66
76285;BME280;65096;50.998;7.098;2023-02-20T02:31:02;101947.38;;;4.57;67.07
76285;BME280;65096;50.998;7.098;2023-02-20T02:36:48;101940.59;;;4.26;68.57
76285;BME280;65096;50.998;7.098;2023-02-20T02:39:20;101934.38;;;4.21;68.42
76285;BME280;65096;50.998;7.098;2023-02-20T02:41:54;101934.31;;;4.03;68.08
76285;BME280;65096;50.998;7.098;2023-02-20T02:44:26;101943.63;;;4.19;68.07
76285;BME280;65096;50.998;7.098;2023-02-20T02:46:58;101937.25;;;4.11;68.78
76285;BME280;65096;50.998;7.098;2023-02-20T02:49:32;101898.00;;;3.93;67.24
76285;BME280;65096;50.998;7.098;2023-02-20T02:52:01;101936.81;;;4.34;66.35
76285;BME280;65096;50.998;7.098;2023-02-20T02:54:29;101924.25;;;4.38;66.76
76285;BME280;65096;50.998;7.098;2023-02-20T02:57:18;101920.97;;;4.25;67.92
76285;BME280;65096;50.998;7.098;2023-02-20T02:59:47;101916.06;;;3.96;69.14
76285;BME280;65096;50.998;7.098;2023-02-20T03:02:16;101910.88;;;3.78;70.14
76285;BME280;65096;50.998;7.098;2023-02-20T03:04:46;101901.22;;;3.73;69.55
76285;BME280;65096;50.998;7.098;2023-02-20T03:07:17;101903.78;;;3.89;68.14
76285;BME280;65096;50.998;7.098;2023-02-20T03:09:47;101897.09;;;3.91;68.41
76285;BME280;65096;50.998;7.098;2023-02-20T03:12:16;101892.44;;;3.84;68.46
76285;BME280;65096;50.998;7.098;2023-02-20T03:14:46;101895.47;;;3.93;68.29
76285;BME280;65096;50.998;7.098;2023-02-20T03:17:35;101895.00;;;4.00;68.26
76285;BME280;65096;50.998;7.098;2023-02-20T03:20:07;101897.16;;;4.08;67.21
76285;BME280;65096;50.998;7.098;2023-02-20T03:22:38;101891.16;;;4.08;67.55
76285;BME280;65096;50.998;7.098;2023-02-20T03:25:11;101900.91;;;4.15;67.69
76285;BME280;65096;50.998;7.098;2023-02-20T03:27:42;101897.75;;;4.20;66.90
76285;BME280;65096;50.998;7.098;2023-02-20T03:30:13;101885.41;;;4.28;66.43
76285;BME280;65096;50.998;7.098;2023-02-20T03:32:42;101881.59;;;4.36;66.39
76285;BME280;65096;50.998;7.098;2023-02-20T03:35:30;101881.06;;;4.43;66.23
76285;BME280;65096;50.998;7.098;2023-02-20T03:38:17;101888.88;;;4.46;65.79
76285;BME280;65096;50.998;7.098;2023-02-20T03:41:04;101884.75;;;4.48;65.46
76285;BME280;65096;50.998;7.098;2023-02-20T03:43:51;101893.34;;;4.50;65.45
76285;BME280;65096;50.998;7.098;2023-02-20T03:46:21;101889.03;;;4.49;65.27
76285;BME280;65096;50.998;7.098;2023-02-20T03:48:52;101881.44;;;4.50;65.26
76285;BME280;65096;50.998;7.098;2023-02-20T03:51:20;101883.22;;;4.51;65.42
76285;BME280;65096;50.998;7.098;2023-02-20T03:53:51;101876.41;;;4.52;65.12
76285;BME280;65096;50.998;7.098;2023-02-20T03:56:21;101882.31;;;4.51;65.05
76285;BME280;65096;50.998;7.098;2023-02-20T03:58:54;101879.78;;;4.51;65.16
76285;BME280;65096;50.998;7.098;2023-02-20T04:01:25;101886.47;;;4.49;65.22
76285;BME280;65096;50.998;7.098;2023-02-20T04:03:53;101883.00;;;4.47;65.10
76285;BME280;65096;50.998;7.098;2023-02-20T04:06:23;101876.84;;;4.43;65.18
76285;BME280;65096;50.998;7.098;2023-02-20T04:08:57;101876.84;;;4.43;65.40
76285;BME280;65096;50.998;7.098;2023-02-20T04:11:30;101879.88;;;4.36;65.89
76285;BME280;65096;50.998;7.098;2023-02-20T04:14:00;101875.00;;;4.25;65.95
76285;BME280;65096;50.998;7.098;2023-02-20T04:16:28;101869.75;;;4.22;65.71
76285;BME280;65096;50.998;7.098;2023-02-20T04:18:55;101868.56;;;4.15;65.89
76285;BME280;65096;50.998;7.098;2023-02-20T04:21:27;101878.94;;;4.18;66.04
76285;BME280;65096;50.998;7.098;2023-02-20T04:24:02;101870.34;;;4.16;66.02
76285;BME280;65096;50.998;7.098;2023-02-20T04:26:30;101865.47;;;4.05;66.63
76285;BME280;65096;50.998;7.098;2023-02-20T04:28:57;101863.03;;;3.90;66.59
76285;BME280;65096;50.998;7.098;2023-02-20T04:31:24;101861.28;;;3.89;66.46
76285;BME280;65096;50.998;7.098;2023-02-20T04:33:52;101855.16;;;3.86;67.09
76285;BME280;65096;50.998;7.098;2023-02-20T04:36:19;101858.75;;;3.73;67.57
76285;BME280;65096;50.998;7.098;2023-02-20T04:38:46;101866.72;;;3.79;67.00
76285;BME280;65096;50.998;7.098;2023-02-20T04:41:14;101863.56;;;3.85;67.03
76285;BME280;65096;50.998;7.098;2023-02-20T04:43:41;101863.25;;;3.95;66.41
76285;BME280;65096;50.998;7.098;2023-02-20T04:46:08;101861.97;;;4.03;66.13
76285;BME280;65096;50.998;7.098;2023-02-20T04:48:35;101864.69;;;4.06;66.64
76285;BME280;65096;50.998;7.098;2023-02-20T04:51:02;101840.06;;;3.90;66.55
76285;BME280;65096;50.998;7.098;2023-02-20T04:53:28;101860.47;;;4.06;66.09
76285;BME280;65096;50.998;7.098;2023-02-20T04:55:55;101861.00;;;4.01;66.29
76285;BME280;65096;50.998;7.098;2023-02-20T04:58:23;101857.19;;;3.93;66.55
76285;BME280;65096;50.998;7.098;2023-02-20T05:00:50;101861.38;;;3.91;66.44
76285;BME280;65096;50.998;7.098;2023-02-20T05:03:16;101858.00;;;3.92;66.32
76285;BME280;65096;50.998;7.098;2023-02-20T05:05:43;101856.09;;;3.88;66.53
76285;BME280;65096;50.998;7.098;2023-02-20T05:08:10;101852.75;;;3.89;66.58
76285;BME280;65096;50.998;7.098;2023-02-20T05:10:36;101834.44;;;3.80;66.62
76285;BME280;65096;50.998;7.098;2023-02-20T05:13:03;101866.78;;;3.81;67.12
76285;BME280;65096;50.998;7.098;2023-02-20T05:15:31;101835.28;;;3.64;67.73
76285;BME280;65096;50.998;7.098;2023-02-20T05:17:58;101855.63;;;3.79;66.92
76285;BME280;65096;50.998;7.098;2023-02-20T05:20:25;101847.09;;;3.78;67.20
76285;BME280;65096;50.998;7.098;2023-02-20T05:23:12;101847.41;;;3.84;66.74
76285;BME280;65096;50.998;7.098;2023-02-20T05:25:37;101851.00;;;3.88;66.64
76285;BME280;65096;50.998;7.098;2023-02-20T05:28:05;101843.00;;;3.98;66.32
76285;BME280;65096;50.998;7.098;2023-02-20T05:30:34;101836.44;;;4.03;66.69
76285;BME280;65096;50.998;7.098;2023-02-20T05:33:00;101845.97;;;3.89;66.58
76285;BME280;65096;50.998;7.098;2023-02-20T05:35:27;101840.31;;;3.79;66.88
76285;BME280;65096;50.998;7.098;2023-02-20T05:37:54;101837.91;;;3.82;66.93
76285;BME280;65096;50.998;7.098;2023-02-20T05:40:20;101816.88;;;3.70;66.57
76285;BME280;65096;50.998;7.098;2023-02-20T05:42:47;101834.34;;;3.78;66.69
76285;BME280;65096;50.998;7.098;2023-02-20T05:45:14;101828.66;;;3.84;66.34
76285;BME280;65096;50.998;7.098;2023-02-20T05:47:42;101827.22;;;3.89;66.71
76285;BME280;65096;50.998;7.098;2023-02-20T05:50:09;101825.78;;;3.94;66.09
76285;BME280;65096;50.998;7.098;2023-02-20T05:52:35;101821.56;;;3.94;65.98
76285;BME280;65096;50.998;7.098;2023-02-20T05:55:02;101826.84;;;3.97;65.82
76285;BME280;65096;50.998;7.098;2023-02-20T05:57:29;101822.56;;;3.98;65.83
76285;BME280;65096;50.998;7.098;2023-02-20T05:59:56;101820.03;;;3.98;65.67
76285;BME280;65096;50.998;7.098;2023-02-20T06:02:22;101811.53;;;3.97;65.80
76285;BME280;65096;50.998;7.098;2023-02-20T06:04:50;101820.09;;;3.99;65.82
76285;BME280;65096;50.998;7.098;2023-02-20T06:07:17;101819.31;;;4.00;65.57
76285;BME280;65096;50.998;7.098;2023-02-20T06:09:44;101816.69;;;3.99;65.92
76285;BME280;65096;50.998;7.098;2023-02-20T06:12:11;101816.38;;;3.93;66.01
76285;BME280;65096;50.998;7.098;2023-02-20T06:14:41;101818.75;;;3.90;65.65
76285;BME280;65096;50.998;7.098;2023-02-20T06:17:08;101827.38;;;3.92;65.85
76285;BME280;65096;50.998;7.098;2023-02-20T06:19:35;101825.66;;;3.91;65.46
76285;BME280;65096;50.998;7.098;2023-02-20T06:22:03;101822.13;;;3.89;65.73
76285;BME280;65096;50.998;7.098;2023-02-20T06:24:29;101826.34;;;3.88;65.83
76285;BME280;65096;50.998;7.098;2023-02-20T06:26:56;101830.59;;;3.88;65.55
76285;BME280;65096;50.998;7.098;2023-02-20T06:29:23;101832.25;;;3.87;65.77
76285;BME280;65096;50.998;7.098;2023-02-20T06:31:50;101821.91;;;3.84;65.61
76285;BME280;65096;50.998;7.098;2023-02-20T06:34:17;101823.56;;;3.84;65.56
76285;BME280;65096;50.998;7.098;2023-02-20T06:36:44;101817.50;;;3.82;65.68
76285;BME280;65096;50.998;7.098;2023-02-20T06:39:13;101821.53;;;3.77;65.58
76285;BME280;65096;50.998;7.098;2023-02-20T06:41:40;101811.47;;;3.80;65.37
76285;BME280;65096;50.998;7.098;2023-02-20T06:44:06;101808.09;;;3.81;65.57
76285;BME280;65096;50.998;7.098;2023-02-20T06:46:33;101812.31;;;3.80;65.70
76285;BME280;65096;50.998;7.098;2023-02-20T06:49:00;101815.59;;;3.78;65.57
76285;BME280;65096;50.998;7.098;2023-02-20T06:51:29;101812.31;;;3.80;65.61
76285;BME280;65096;50.998;7.098;2023-02-20T06:53:56;101820.78;;;3.79;65.38
76285;BME280;65096;50.998;7.098;2023-02-20T06:56:27;101822.38;;;3.77;65.37
76285;BME280;65096;50.998;7.098;2023-02-20T06:58:54;101818.09;;;3.76;65.64
76285;BME280;65096;50.998;7.098;2023-02-20T07:01:23;101821.41;;;3.75;65.43
76285;BME280;65096;50.998;7.098;2023-02-20T07:03:51;101827.31;;;3.74;65.32
76285;BME280;65096;50.998;7.098;2023-02-20T07:06:20;101828.91;;;3.72;65.68
76285;BME280;65096;50.998;7.098;2023-02-20T07:08:46;101829.06;;;3.75;65.64
76285;BME280;65096;50.998;7.098;2023-02-20T07:11:13;101835.94;;;3.76;65.38
76285;BME280;65096;50.998;7.098;2023-02-20T07:13:43;101829.78;;;3.73;65.59
76285;BME280;65096;50.998;7.098;2023-02-20T07:16:10;101838.41;;;3.75;65.46
76285;BME280;65096;50.998;7.098;2023-02-20T07:18:37;101838.41;;;3.75;65.79
76285;BME280;65096;50.998;7.098;2023-02-20T07:21:04;101837.69;;;3.77;65.56
76285;BME280;65096;50.998;7.098;2023-02-20T07:23:31;101836.81;;;3.77;65.66
76285;BME280;65096;50.998;7.098;2023-02-20T07:25:57;101829.06;;;3.75;65.65
76285;BME280;65096;50.998;7.098;2023-02-20T07:28:26;101829.06;;;3.75;65.79
76285;BME280;65096;50.998;7.098;2023-02-20T07:30:54;101843.66;;;3.78;65.66
76285;BME280;65096;50.998;7.098;2023-02-20T07:33:21;101837.75;;;3.79;65.71
76285;BME280;65096;50.998;7.098;2023-02-20T07:35:47;101853.13;;;3.80;65.82
76285;BME280;65096;50.998;7.098;2023-02-20T07:38:14;101843.91;;;3.82;65.74
76285;BME280;65096;50.998;7.098;2023-02-20T07:40:41;101851.72;;;3.85;66.07
76285;BME280;65096;50.998;7.098;2023-02-20T07:43:08;101854.09;;;3.82;65.64
76285;BME280;65096;50.998;7.098;2023-02-20T07:45:34;101853.28;;;3.83;66.11
76285;BME280;65096;50.998;7.098;2023-02-20T07:48:04;101866.13;;;3.85;66.06
76285;BME280;65096;50.998;7.098;2023-02-20T07:50:31;101864.22;;;3.81;66.15
76285;BME280;65096;50.998;7.098;2023-02-20T07:52:58;101860.09;;;3.83;66.37
76285;BME280;65096;50.998;7.098;2023-02-20T07:55:24;101859.44;;;3.87;65.94
76285;BME280;65096;50.998;7.098;2023-02-20T07:57:51;101875.06;;;3.93;66.25
76285;BME280;65096;50.998;7.098;2023-02-20T08:00:23;101876.91;;;3.95;66.40
76285;BME280;65096;50.998;7.098;2023-02-20T08:02:51;101875.53;;;4.02;66.54
76285;BME280;65096;50.998;7.098;2023-02-20T08:05:20;101871.47;;;4.05;66.45
76285;BME280;65096;50.998;7.098;2023-02-20T08:07:48;101856.94;;;4.04;67.12
76285;BME280;65096;50.998;7.098;2023-02-20T08:10:16;101858.22;;;4.12;67.42
76285;BME280;65096;50.998;7.098;2023-02-20T08:12:43;101861.16;;;4.20;67.54
76285;BME280;65096;50.998;7.098;2023-02-20T08:15:10;101862.44;;;4.28;68.20
76285;BME280;65096;50.998;7.098;2023-02-20T08:17:39;101866.72;;;4.29;67.75
76285;BME280;65096;50.998;7.098;2023-02-20T08:20:07;101870.50;;;4.35;68.14
76285;BME280;65096;50.998;7.098;2023-02-20T08:22:35;101868.53;;;4.47;67.63
76285;BME280;65096;50.998;7.098;2023-02-20T08:25:03;101869.56;;;4.51;68.34
76285;BME280;65096;50.998;7.098;2023-02-20T08:27:30;101872.25;;;4.54;68.34
76285;BME280;65096;50.998;7.098;2023-02-20T08:29:57;101871.84;;;4.62;67.50
76285;BME280;65096;50.998;7.098;2023-02-20T08:32:24;101850.72;;;4.66;67.58
76285;BME280;65096;50.998;7.098;2023-02-20T08:34:51;101870.69;;;4.91;67.50
76285;BME280;65096;50.998;7.098;2023-02-20T08:37:17;101868.84;;;5.06;67.03
76285;BME280;65096;50.998;7.098;2023-02-20T08:39:46;101868.38;;;5.15;66.92
76285;BME280;65096;50.998;7.098;2023-02-20T08:42:14;101869.28;;;5.15;66.71
76285;BME280;65096;50.998;7.098;2023-02-20T08:44:45;101864.00;;;5.30;65.65
76285;BME280;65096;50.998;7.098;2023-02-20T08:47:12;101866.81;;;5.36;65.25
76285;BME280;65096;50.998;7.098;2023-02-20T08:49:39;101869.56;;;5.40;64.71
76285;BME280;65096;50.998;7.098;2023-02-20T08:52:05;101868.84;;;5.43;64.89
76285;BME280;65096;50.998;7.098;2023-02-20T08:54:32;101863.06;;;5.47;65.07
76285;BME280;65096;50.998;7.098;2023-02-20T08:57:00;101858.50;;;5.59;64.60
76285;BME280;65096;50.998;7.098;2023-02-20T08:59:30;101858.22;;;5.53;64.86
76285;BME280;65096;50.998;7.098;2023-02-20T09:01:57;101857.44;;;5.73;64.31
76285;BME280;65096;50.998;7.098;2023-02-20T09:04:24;101869.53;;;5.77;64.38
76285;BME280;65096;50.998;7.098;2023-02-20T09:06:50;101853.44;;;5.79;64.79
76285;BME280;65096;50.998;7.098;2023-02-20T09:09:17;101852.63;;;5.80;64.67
76285;BME280;65096;50.998;7.098;2023-02-20T09:11:44;101851.84;;;5.81;63.77
76285;BME280;65096;50.998;7.098;2023-02-20T09:14:12;101862.34;;;5.87;63.66
76285;BME280;65096;50.998;7.098;2023-02-20T09:16:38;101865.56;;;5.83;63.21
76285;BME280;65096;50.998;7.098;2023-02-20T09:19:06;101860.41;;;6.02;62.66
76285;BME280;65096;50.998;7.098;2023-02-20T09:21:33;101870.66;;;6.02;62.66
76285;BME280;65096;50.998;7.098;2023-02-20T09:24:00;101873.91;;;5.98;62.42
76285;BME280;65096;50.998;7.098;2023-02-20T09:26:27;101872.31;;;6.00;61.92
76285;BME280;65096;50.998;7.098;2023-02-20T09:28:54;101873.97;;;6.00;61.77
76285;BME280;65096;50.998;7.098;2023-02-20T09:31:22;101870.81;;;6.05;62.16
76285;BME280;65096;50.998;7.098;2023-02-20T09:33:48;101861.31;;;6.03;62.04
76285;BME280;65096;50.998;7.098;2023-02-20T09:36:15;101872.50;;;6.05;61.51
76285;BME280;65096;50.998;7.098;2023-02-20T09:38:42;101870.75;;;6.04;61.96
76285;BME280;65096;50.998;7.098;2023-02-20T09:41:17;101868.19;;;6.04;62.84
76285;BME280;65096;50.998;7.098;2023-02-20T09:43:50;101869.75;;;6.00;62.37
76285;BME280;65096;50.998;7.098;2023-02-20T09:46:20;101866.63;;;6.07;62.34
76285;BME280;65096;50.998;7.098;2023-02-20T09:48:59;101872.44;;;6.03;62.58
76285;BME280;65096;50.998;7.098;2023-02-20T09:51:30;101878.44;;;6.04;61.85
76285;BME280;65096;50.998;7.098;2023-02-20T09:54:02;101868.31;;;6.07;62.65
76285;BME280;65096;50.998;7.098;2023-02-20T09:56:32;101869.25;;;6.09;62.15
76285;BME280;65096;50.998;7.098;2023-02-20T09:59:05;101868.50;;;6.11;61.84
76285;BME280;65096;50.998;7.098;2023-02-20T10:01:33;101862.75;;;6.17;61.90
76285;BME280;65096;50.998;7.098;2023-02-20T10:04:04;101860.78;;;6.10;62.37
76285;BME280;65096;50.998;7.098;2023-02-20T10:06:34;101860.72;;;6.08;62.69
76285;BME280;65096;50.998;7.098;2023-02-20T10:09:02;101868.19;;;6.04;62.89
76285;BME280;65096;50.998;7.098;2023-02-20T10:11:48;101829.94;;;5.88;61.97
76285;BME280;65096;50.998;7.098;2023-02-20T10:14:46;101865.81;;;6.08;62.71
76285;BME280;65096;50.998;7.098;2023-02-20T10:17:22;101847.84;;;6.07;62.36
76285;BME280;65096;50.998;7.098;2023-02-20T10:20:01;101854.88;;;6.12;62.53
76285;BME280;65096;50.998;7.098;2023-02-20T10:22:31;101856.31;;;6.25;62.11
76285;BME280;65096;50.998;7.098;2023-02-20T10:25:10;101848.03;;;6.30;62.06
76285;BME280;65096;50.998;7.098;2023-02-20T10:27:51;101848.75;;;6.28;62.37
76285;BME280;65096;50.998;7.098;2023-02-20T10:30:23;101843.84;;;6.33;62.63
76285;BME280;65096;50.998;7.098;2023-02-20T10:32:56;101838.06;;;6.38;62.33
76285;BME280;65096;50.998;7.098;2023-02-20T10:35:35;101847.06;;;6.28;62.25
76285;BME280;65096;50.998;7.098;2023-02-20T10:38:07;101840.94;;;6.25;62.56
76285;BME280;65096;50.998;7.098;2023-02-20T10:40:38;101844.63;;;6.31;63.08
76285;BME280;65096;50.998;7.098;2023-02-20T10:43:11;101846.66;;;6.39;62.44
76285;BME280;65096;50.998;7.098;2023-02-20T10:45:48;101844.56;;;6.51;61.81
76285;BME280;65096;50.998;7.098;2023-02-20T10:48:16;101839.19;;;6.45;62.29
76285;BME280;65096;50.998;7.098;2023-02-20T10:50:49;101830.91;;;6.50;62.49
76285;BME280;65096;50.998;7.098;2023-02-20T10:53:18;101829.19;;;6.51;62.64
76285;BME280;65096;50.998;7.098;2023-02-20T10:55:51;101839.19;;;6.45;62.99
76285;BME280;65096;50.998;7.098;2023-02-20T10:58:24;101840.34;;;6.51;62.64
76285;BME280;65096;50.998;7.098;2023-02-20T11:00:54;101830.97;;;6.52;62.42
76285;BME280;65096;50.998;7.098;2023-02-20T11:03:24;101834.44;;;6.54;62.95
76285;BME280;65096;50.998;7.098;2023-02-20T11:05:56;101825.84;;;6.52;62.88
76285;BME280;65096;50.998;7.098;2023-02-20T11:08:26;101827.16;;;6.63;61.91
76285;BME280;65096;50.998;7.098;2023-02-20T11:10:57;101819.28;;;6.58;61.96
76285;BME280;65096;50.998;7.098;2023-02-20T11:13:25;101813.44;;;6.62;61.91
76285;BME280;65096;50.998;7.098;2023-02-20T11:15:55;101814.56;;;6.69;61.59
76285;BME280;65096;50.998;7.098;2023-02-20T11:18:24;101819.56;;;6.66;62.24
76285;BME280;65096;50.998;7.098;2023-02-20T11:20:54;101807.81;;;6.71;62.23
76285;BME280;65096;50.998;7.098;2023-02-20T11:23:48;101807.81;;;6.71;61.88
76285;BME280;65096;50.998;7.098;2023-02-20T11:26:25;101814.63;;;6.70;62.50
76285;BME280;65096;50.998;7.098;2023-02-20T11:28:59;101805.47;;;6.77;61.86
76285;BME280;65096;50.998;7.098;2023-02-20T11:31:28;101804.38;;;6.70;62.83
76285;BME280;65096;50.998;7.098;2023-02-20T11:33:55;101797.22;;;6.84;62.52
76285;BME280;65096;50.998;7.098;2023-02-20T11:36:26;101806.53;;;6.82;62.15
76285;BME280;65096;50.998;7.098;2023-02-20T11:38:57;101793.16;;;6.89;61.62
76285;BME280;65096;50.998;7.098;2023-02-20T11:41:28;101788.09;;;6.90;61.62
76285;BME280;65096;50.998;7.098;2023-02-20T11:44:21;101775.06;;;6.86;61.99
76285;BME280;65096;50.998;7.098;2023-02-20T11:50:08;101770.94;;;6.89;62.67
76285;BME280;65096;50.998;7.098;2023-02-20T11:52:37;101753.88;;;6.90;62.69
76285;BME280;65096;50.998;7.098;2023-02-20T11:55:09;101741.31;;;6.97;62.55
76285;BME280;65096;50.998;7.098;2023-02-20T11:57:37;101732.16;;;7.04;62.23
76285;BME280;65096;50.998;7.098;2023-02-20T12:00:13;101729.94;;;7.13;62.31
76285;BME280;65096;50.998;7.098;2023-02-20T12:02:50;101721.91;;;7.27;61.85
76285;BME280;65096;50.998;7.098;2023-02-20T12:05:18;101721.38;;;7.36;62.02
76285;BME280;65096;50.998;7.098;2023-02-20T12:07:56;101687.38;;;7.18;62.01
76285;BME280;65096;50.998;7.098;2023-02-20T12:10:28;101732.25;;;7.52;61.71
76285;BME280;65096;50.998;7.098;2023-02-20T12:12:57;101725.78;;;7.63;61.83
76285;BME280;65096;50.998;7.098;2023-02-20T12:15:26;101731.00;;;7.66;61.45
76285;BME280;65096;50.998;7.098;2023-02-20T12:18:07;101718.88;;;7.62;61.61
76285;BME280;65096;50.998;7.098;2023-02-20T12:20:40;101721.78;;;7.71;61.70
76285;BME280;65096;50.998;7.098;2023-02-20T12:23:17;101712.16;;;7.90;60.86
76285;BME280;65096;50.998;7.098;2023-02-20T12:25:54;101711.06;;;8.08;61.82
76285;BME280;65096;50.998;7.098;2023-02-20T12:28:28;101702.81;;;8.18;60.24
76285;BME280;65096;50.998;7.098;2023-02-20T12:31:09;101703.28;;;8.33;59.63
76285;BME280;65096;50.998;7.098;2023-02-20T12:33:56;101703.44;;;8.38;59.27
76285;BME280;65096;50.998;7.098;2023-02-20T12:36:30;101703.59;;;8.42;59.63
76285;BME280;65096;50.998;7.098;2023-02-20T12:39:05;101692.69;;;8.51;58.54
76285;BME280;65096;50.998;7.098;2023-02-20T12:41:46;101686.72;;;8.50;58.63
76285;BME280;65096;50.998;7.098;2023-02-20T12:44:32;101673.09;;;8.54;58.46
76285;BME280;65096;50.998;7.098;2023-02-20T12:47:13;101687.56;;;8.51;59.09
76285;BME280;65096;50.998;7.098;2023-02-20T12:49:52;101689.44;;;8.56;58.57
76285;BME280;65096;50.998;7.098;2023-02-20T12:52:35;101681.78;;;8.87;59.67
76285;BME280;65096;50.998;7.098;2023-02-20T12:55:19;101654.34;;;8.86;58.94
76285;BME280;65096;50.998;7.098;2023-02-20T12:57:52;101684.44;;;9.18;58.02
76285;BME280;65096;50.998;7.098;2023-02-20T13:00:32;101696.41;;;9.18;58.70
76285;BME280;65096;50.998;7.098;2023-02-20T13:03:07;101682.78;;;9.21;58.97
76285;BME280;65096;50.998;7.098;2023-02-20T13:05:37;101667.47;;;9.25;58.31
76285;BME280;65096;50.998;7.098;2023-02-20T13:08:09;101684.94;;;9.37;58.25
76285;BME280;65096;50.998;7.098;2023-02-20T13:10:46;101690.78;;;9.31;56.67
76285;BME280;65096;50.998;7.098;2023-02-20T13:13:13;101694.72;;;9.18;58.96
76285;BME280;65096;50.998;7.098;2023-02-20T13:15:47;101689.81;;;9.28;56.79
76285;BME280;65096;50.998;7.098;2023-02-20T13:18:22;101629.22;;;9.07;58.22
76285;BME280;65096;50.998;7.098;2023-02-20T13:20:52;101664.72;;;9.19;58.65
76285;BME280;65096;50.998;7.098;2023-02-20T13:23:27;101670.03;;;9.25;58.51
76285;BME280;65096;50.998;7.098;2023-02-20T13:25:56;101674.56;;;9.34;59.16
76285;BME280;65096;50.998;7.098;2023-02-20T13:28:35;101656.19;;;9.22;57.61
76285;BME280;65096;50.998;7.098;2023-02-20T13:31:18;101647.06;;;9.33;58.01
76285;BME280;65096;50.998;7.098;2023-02-20T13:33:46;101637.97;;;9.47;58.07